This is the latest recevied weather packets stored in our database for station/object LKCS. If no packets are shown the sender has not sent any weather packets the latest 10 day(s).
| Time | Temp. | Humidity | Pressure | Rain* | Wind** | Luminosity | Snow |
|---|---|---|---|---|---|---|---|
| 1777334568 | 3.89° C | 69% | 1020 hPa | - | - | - | - |
| 1777332784 | 3.89° C | 64% | 1020 hPa | - | - | - | - |
| 1777330962 | 5° C | 65% | 1020 hPa | - | - | - | - |
| 1777329185 | 5° C | 65% | 1020 hPa | - | - | - | - |
| 1777327387 | 10° C | 43% | 1020 hPa | - | - | - | - |
| 1777325584 | 10° C | 43% | 1020 hPa | - | - | - | - |
| 1777323788 | 8.89° C | 49% | 1020 hPa | - | - | - | - |
| 1777321951 | 12.22° C | 37% | 1020 hPa | - | - | - | - |
| 1777320186 | 12.78° C | 35% | 1020 hPa | - | - | - | - |
| 1777318351 | 13.89° C | 33% | 1020 hPa | - | - | - | - |
| 1777316560 | 13.89° C | 33% | 1019 hPa | - | - | - | - |
| 1777314786 | 15° C | 30% | 1019 hPa | - | - | - | - |
| 1777312967 | 15° C | 30% | 1019 hPa | - | - | - | - |
| 1777311185 | 15° C | 30% | 1019 hPa | - | - | - | - |
| 1777309360 | 16.11° C | 29% | 1019 hPa | - | - | - | - |
| 1777307559 | 17.22° C | 25% | 1019 hPa | - | - | - | - |
| 1777305788 | 17.22° C | 25% | 1019 hPa | - | - | - | - |
| 1777303985 | 17.22° C | 25% | 1019 hPa | - | - | - | - |
| 1777302186 | 17.22° C | 25% | 1020 hPa | - | - | - | - |
| 1777300384 | 17.22° C | 25% | 1020 hPa | - | - | - | - |
| 1777298593 | 17.22° C | 21% | 1020 hPa | - | - | - | - |
| 1777296758 | 17.78° C | 22% | 1020 hPa | - | - | - | - |
| 1777294967 | 17.22° C | 25% | 1021 hPa | - | - | - | - |
| 1777293184 | 17.22° C | 20% | 1021 hPa | - | - | - | - |
| 1777291395 | 16.11° C | 26% | 1021 hPa | - | - | - | - |
* Rain since midnight (hover to see other rain measurements)
** Current wind speed in m/s (hover to see current wind gust speed)